createdAt,value
2016-11-10T00:00:31.147Z,0
2016-11-10T00:01:40.809Z,0
2016-11-10T00:02:51.077Z,0
2016-11-10T00:04:01.359Z,0
2016-11-10T00:05:11.345Z,0
2016-11-10T00:06:21.691Z,0
2016-11-10T00:07:32.020Z,0
2016-11-10T00:08:42.340Z,0
2016-11-10T00:09:52.617Z,0
2016-11-10T00:11:02.906Z,0
2016-11-10T00:12:12.911Z,0
2016-11-10T00:13:23.186Z,0
2016-11-10T00:14:33.149Z,0
2016-11-10T00:15:43.411Z,0
2016-11-10T00:16:53.683Z,0
2016-11-10T00:18:03.968Z,0
2016-11-10T00:19:14.239Z,0
2016-11-10T00:20:24.221Z,0
2016-11-10T00:21:34.503Z,0
2016-11-10T00:22:44.480Z,0
2016-11-10T00:23:54.457Z,0
2016-11-10T00:25:04.753Z,0
2016-11-10T00:26:15.044Z,0
2016-11-10T00:27:25.376Z,0
2016-11-10T00:28:35.653Z,0
2016-11-10T00:29:45.625Z,0
2016-11-10T00:30:55.911Z,0
2016-11-10T00:32:06.187Z,0
2016-11-10T00:33:16.504Z,0
2016-11-10T00:34:26.809Z,0
2016-11-10T00:35:37.098Z,0
2016-11-10T00:36:47.379Z,0
2016-11-10T00:37:57.670Z,0
2016-11-10T00:39:07.959Z,0
2016-11-10T00:40:18.233Z,0
2016-11-10T00:41:28.520Z,0
2016-11-10T00:42:38.502Z,0
2016-11-10T00:43:48.773Z,0
2016-11-10T00:44:59.077Z,0
2016-11-10T00:46:09.393Z,0
2016-11-10T00:47:19.363Z,0
2016-11-10T00:48:29.654Z,0
2016-11-10T00:49:39.941Z,0
2016-11-10T00:50:50.245Z,0
2016-11-10T00:52:00.202Z,0
2016-11-10T00:53:10.472Z,0
2016-11-10T00:54:20.767Z,0
2016-11-10T00:55:31.049Z,0
2016-11-10T00:56:41.312Z,0
2016-11-10T00:57:51.607Z,0
2016-11-10T00:59:01.902Z,0
2016-11-10T01:00:12.202Z,0
2016-11-10T01:01:22.483Z,0
2016-11-10T01:02:32.465Z,0
2016-11-10T01:03:42.741Z,0
2016-11-10T01:04:53.019Z,0
2016-11-10T01:06:02.674Z,0
2016-11-10T01:07:12.650Z,0
2016-11-10T01:08:22.924Z,0
2016-11-10T01:09:32.904Z,0
2016-11-10T01:10:43.174Z,0
2016-11-10T01:11:52.828Z,0
2016-11-10T01:13:03.105Z,0
2016-11-10T01:14:13.067Z,0
2016-11-10T01:15:23.048Z,0
2016-11-10T01:16:33.325Z,0
2016-11-10T01:17:43.621Z,0
2016-11-10T01:18:53.930Z,0
2016-11-10T01:20:04.206Z,0
2016-11-10T01:21:14.500Z,0
2016-11-10T01:22:24.778Z,0
2016-11-10T01:23:34.440Z,0
2016-11-10T01:24:44.094Z,0
2016-11-10T01:25:54.103Z,0
2016-11-10T01:27:04.076Z,0
2016-11-10T01:28:14.378Z,0
2016-11-10T01:29:24.653Z,0
2016-11-10T01:30:34.930Z,0
2016-11-10T01:31:45.221Z,0
2016-11-10T01:32:55.198Z,0
2016-11-10T01:34:05.479Z,0
2016-11-10T01:35:15.758Z,0
2016-11-10T01:36:26.046Z,0
2016-11-10T01:37:36.011Z,0
2016-11-10T01:38:46.287Z,0
2016-11-10T01:39:56.593Z,0
2016-11-10T01:41:06.564Z,0
2016-11-10T01:42:16.541Z,0
2016-11-10T01:43:26.214Z,0
2016-11-10T01:44:36.496Z,0
2016-11-10T01:45:46.796Z,0
2016-11-10T01:46:57.080Z,0
2016-11-10T01:48:07.402Z,0
2016-11-10T01:49:17.401Z,0
2016-11-10T01:50:27.685Z,0
2016-11-10T01:51:37.658Z,0
2016-11-10T01:52:47.942Z,0
2016-11-10T01:53:58.240Z,0
2016-11-10T01:55:08.198Z,0
2016-11-10T01:56:18.158Z,0
2016-11-10T01:57:28.464Z,0
2016-11-10T01:58:38.420Z,0
2016-11-10T01:59:48.382Z,0
2016-11-10T02:00:58.672Z,0
2016-11-10T02:02:08.946Z,0
2016-11-10T02:03:18.916Z,0
2016-11-10T02:04:28.879Z,0
2016-11-10T02:05:38.841Z,0
2016-11-10T02:06:49.122Z,0
2016-11-10T02:07:59.093Z,0
2016-11-10T02:09:09.375Z,0
2016-11-10T02:10:19.657Z,0
2016-11-10T02:11:29.633Z,0
2016-11-10T02:12:39.605Z,0
2016-11-10T02:13:49.581Z,0
2016-11-10T02:14:59.849Z,0
2016-11-10T02:16:10.152Z,0
2016-11-10T02:17:20.426Z,0
2016-11-10T02:18:30.693Z,0
2016-11-10T02:19:40.675Z,0
2016-11-10T02:20:50.949Z,0
2016-11-10T02:22:00.927Z,0
2016-11-10T02:23:11.202Z,0
2016-11-10T02:24:21.484Z,0
2016-11-10T02:25:31.814Z,0
2016-11-10T02:26:42.087Z,0
2016-11-10T02:27:52.097Z,0
2016-11-10T02:29:02.365Z,0
2016-11-10T02:30:12.650Z,0
2016-11-10T02:31:22.928Z,0
2016-11-10T02:32:33.190Z,0
2016-11-10T02:33:43.462Z,0
2016-11-10T02:34:53.745Z,0
2016-11-10T02:36:03.703Z,0
2016-11-10T02:37:13.987Z,0
2016-11-10T02:38:23.642Z,0
2016-11-10T02:39:33.605Z,0
2016-11-10T02:40:43.561Z,0
2016-11-10T02:41:53.831Z,0
2016-11-10T02:43:03.806Z,0
2016-11-10T02:44:14.076Z,0
2016-11-10T02:45:24.053Z,0
2016-11-10T02:46:34.046Z,0
2016-11-10T02:47:44.332Z,0
2016-11-10T02:48:54.301Z,0
2016-11-10T02:50:04.585Z,0
2016-11-10T02:51:14.906Z,0
2016-11-10T02:52:25.183Z,0
2016-11-10T02:53:35.454Z,0
2016-11-10T02:54:45.769Z,0
2016-11-10T02:55:56.047Z,0
2016-11-10T02:57:06.335Z,0
2016-11-10T02:58:16.301Z,0
2016-11-10T02:59:26.588Z,0
2016-11-10T03:00:36.864Z,0
2016-11-10T03:32:21.429Z,0
2016-11-10T03:33:31.686Z,0
2016-11-10T03:34:41.957Z,0
2016-11-10T03:35:52.216Z,0
2016-11-10T03:37:02.513Z,0
2016-11-10T03:38:12.475Z,0
2016-11-10T03:39:22.765Z,0
2016-11-10T03:40:33.080Z,0
2016-11-10T03:41:43.353Z,0
2016-11-10T03:42:53.318Z,0
2016-11-10T03:44:03.271Z,0
2016-11-10T03:45:13.243Z,0
2016-11-10T03:46:23.522Z,0
2016-11-10T03:47:33.837Z,0
2016-11-10T03:48:44.108Z,0
2016-11-10T03:49:54.130Z,0
2016-11-10T03:51:04.410Z,0
2016-11-10T03:52:14.689Z,0
2016-11-10T03:53:24.972Z,0
2016-11-10T03:54:35.256Z,0
2016-11-10T03:55:45.528Z,0
2016-11-10T03:56:55.500Z,0
2016-11-10T03:58:05.777Z,0
2016-11-10T03:59:15.747Z,0
2016-11-10T04:00:26.023Z,0
2016-11-10T04:01:36.008Z,0
2016-11-10T04:02:46.285Z,0
2016-11-10T04:03:56.552Z,0
2016-11-10T04:05:06.828Z,0
2016-11-10T04:06:17.120Z,0
2016-11-10T04:07:27.452Z,0
2016-11-10T04:08:37.738Z,0
2016-11-10T04:09:48.020Z,0
2016-11-10T04:10:58.306Z,0
2016-11-10T04:12:08.279Z,0
2016-11-10T04:13:18.575Z,0
2016-11-10T04:14:28.536Z,0
2016-11-10T04:15:38.823Z,0
2016-11-10T04:16:49.122Z,0
2016-11-10T04:17:59.395Z,0
2016-11-10T04:19:09.684Z,0
2016-11-10T04:20:19.351Z,0
2016-11-10T04:21:29.632Z,0
2016-11-10T04:22:39.908Z,0
2016-11-10T04:23:50.173Z,0
2016-11-10T04:25:00.452Z,0
2016-11-10T04:26:10.433Z,0
2016-11-10T04:27:20.709Z,0
2016-11-10T04:28:30.997Z,0
2016-11-10T04:29:41.285Z,0
2016-11-10T04:30:51.554Z,0
2016-11-10T04:32:01.831Z,0
2016-11-10T04:33:12.113Z,0
2016-11-10T04:34:22.085Z,0
2016-11-10T04:35:32.393Z,0
2016-11-10T04:36:42.679Z,0
2016-11-10T04:37:52.626Z,0
2016-11-10T04:39:02.898Z,0
2016-11-10T04:40:12.854Z,0
2016-11-10T04:41:22.826Z,0
2016-11-10T04:42:33.100Z,0
2016-11-10T04:43:43.385Z,0
2016-11-10T04:44:53.657Z,0
2016-11-10T04:46:03.942Z,0
2016-11-10T04:47:13.892Z,0
2016-11-10T04:48:23.551Z,0
2016-11-10T04:49:33.525Z,0
2016-11-10T04:50:43.496Z,0
2016-11-10T04:51:53.782Z,0
2016-11-10T04:53:03.457Z,0
2016-11-10T04:54:12.806Z,0
2016-11-10T04:55:22.772Z,0
2016-11-10T04:56:33.054Z,0
2016-11-10T04:57:43.341Z,0
2016-11-10T04:58:53.027Z,0
2016-11-10T05:00:03.319Z,0
2016-11-10T05:01:13.304Z,0
2016-11-10T05:02:23.282Z,0
2016-11-10T05:03:33.564Z,0
2016-11-10T05:04:43.531Z,0
2016-11-10T05:05:53.484Z,0
2016-11-10T05:07:03.440Z,0
2016-11-10T05:08:13.732Z,0
2016-11-10T05:09:24.018Z,0
2016-11-10T05:10:34.299Z,0
2016-11-10T05:11:44.261Z,0
2016-11-10T05:12:54.546Z,0
2016-11-10T05:14:04.520Z,0
2016-11-10T05:15:14.187Z,0
2016-11-10T05:16:24.154Z,0
2016-11-10T05:17:34.426Z,0
2016-11-10T05:18:44.402Z,0
2016-11-10T05:19:54.707Z,0
2016-11-10T05:21:04.974Z,0
2016-11-10T05:22:15.242Z,0
2016-11-10T05:23:25.543Z,0
2016-11-10T05:24:35.510Z,0
2016-11-10T05:25:45.778Z,0
2016-11-10T05:26:55.752Z,0
2016-11-10T05:28:06.026Z,0
2016-11-10T05:29:15.728Z,0
2016-11-10T05:30:26.023Z,0
2016-11-10T05:31:35.991Z,0
2016-11-10T05:32:46.313Z,0
2016-11-10T05:33:56.593Z,0
2016-11-10T05:35:06.257Z,0
2016-11-10T05:36:16.533Z,0
2016-11-10T05:37:26.488Z,0
2016-11-10T05:38:36.761Z,0
2016-11-10T05:39:47.051Z,0
2016-11-10T05:40:57.335Z,0
2016-11-10T05:42:07.605Z,0
2016-11-10T05:43:17.916Z,0
2016-11-10T05:44:28.194Z,0
2016-11-10T05:45:38.154Z,0
2016-11-10T05:46:48.459Z,0
2016-11-10T05:47:58.464Z,0
2016-11-10T05:49:08.427Z,0
2016-11-10T05:50:18.700Z,0
2016-11-10T05:51:28.979Z,0
2016-11-10T05:52:39.266Z,0
2016-11-10T05:53:49.552Z,0
2016-11-10T05:54:59.534Z,0
2016-11-10T05:56:09.507Z,0
2016-11-10T05:57:19.772Z,0
2016-11-10T05:58:30.040Z,0
2016-11-10T05:59:40.346Z,0
2016-11-10T06:00:50.622Z,0
2016-11-10T06:02:00.904Z,0
2016-11-10T06:03:11.176Z,0
2016-11-10T06:04:21.487Z,0
2016-11-10T06:05:31.784Z,0
2016-11-10T06:06:42.061Z,0
2016-11-10T06:07:52.024Z,0
2016-11-10T06:09:02.295Z,0
2016-11-10T06:10:12.578Z,0
2016-11-10T06:11:22.847Z,0
2016-11-10T06:12:33.120Z,0
2016-11-10T06:13:43.396Z,0
2016-11-10T06:14:53.047Z,0
2016-11-10T06:16:03.325Z,0
2016-11-10T06:17:13.279Z,0
2016-11-10T06:18:22.977Z,0
2016-11-10T06:19:33.272Z,5
2016-11-10T06:20:43.556Z,5
2016-11-10T06:21:53.835Z,5
2016-11-10T06:23:04.102Z,5
2016-11-10T06:24:14.379Z,0
2016-11-10T06:25:24.687Z,5
2016-11-10T06:26:34.645Z,10
2016-11-10T06:27:44.616Z,10
2016-11-10T06:28:54.583Z,10
2016-11-10T06:30:04.851Z,10
2016-11-10T06:31:15.126Z,10
2016-11-10T06:32:24.781Z,10
2016-11-10T06:33:35.061Z,15
2016-11-10T06:34:45.337Z,15
2016-11-10T06:35:55.652Z,10
2016-11-10T06:37:05.935Z,10
2016-11-10T06:38:16.212Z,15
2016-11-10T06:39:26.195Z,20
2016-11-10T06:40:36.481Z,20
2016-11-10T06:41:46.761Z,15
2016-11-10T06:42:56.737Z,10
2016-11-10T06:44:07.014Z,15
2016-11-10T06:45:17.287Z,15
2016-11-10T06:46:27.583Z,20
2016-11-10T06:47:37.896Z,20
2016-11-10T06:48:48.177Z,25
2016-11-10T06:49:58.470Z,25
2016-11-10T06:51:08.750Z,30
2016-11-10T06:52:19.031Z,30
2016-11-10T06:53:29.318Z,30
2016-11-10T06:54:38.981Z,35
2016-11-10T06:55:48.947Z,35
2016-11-10T06:56:58.598Z,35
2016-11-10T06:58:08.560Z,40
2016-11-10T06:59:18.823Z,40
2016-11-10T07:00:29.163Z,40
2016-11-10T07:01:39.429Z,40
2016-11-10T07:02:49.394Z,35
2016-11-10T07:03:59.683Z,35
2016-11-10T07:05:09.962Z,35
2016-11-10T07:06:20.239Z,40
2016-11-10T07:07:29.902Z,40
2016-11-10T07:08:39.906Z,40
2016-11-10T07:09:50.189Z,40
2016-11-10T07:11:00.470Z,45
2016-11-10T07:12:10.745Z,45
2016-11-10T07:13:21.018Z,50
2016-11-10T07:14:31.003Z,55
2016-11-10T07:15:41.282Z,60
2016-11-10T07:16:50.943Z,65
2016-11-10T07:18:01.209Z,65
2016-11-10T07:19:11.185Z,70
2016-11-10T07:20:20.865Z,75
2016-11-10T07:21:31.154Z,80
2016-11-10T07:22:41.472Z,80
2016-11-10T07:23:51.763Z,75
2016-11-10T07:25:01.735Z,80
2016-11-10T07:26:12.022Z,80
2016-11-10T07:27:21.693Z,85
2016-11-10T07:28:31.994Z,90
2016-11-10T07:29:42.302Z,95
2016-11-10T07:30:52.588Z,95
2016-11-10T07:32:02.564Z,90
2016-11-10T07:33:12.850Z,90
2016-11-10T07:34:23.118Z,90
2016-11-10T07:35:33.094Z,90
2016-11-10T07:36:43.366Z,90
2016-11-10T07:37:53.647Z,90
2016-11-10T07:39:03.919Z,95
2016-11-10T07:40:13.586Z,95
2016-11-10T07:41:23.864Z,95
2016-11-10T07:42:33.835Z,90
2016-11-10T07:43:44.142Z,85
2016-11-10T07:44:54.106Z,80
2016-11-10T07:46:04.415Z,80
2016-11-10T07:47:14.710Z,80
2016-11-10T07:48:24.988Z,80
2016-11-10T07:49:34.985Z,85
2016-11-10T07:50:44.964Z,85
2016-11-10T07:51:55.247Z,90
2016-11-10T07:53:05.209Z,90
2016-11-10T07:54:14.871Z,95
2016-11-10T07:55:25.193Z,80
2016-11-10T07:56:35.471Z,80
2016-11-10T07:57:45.450Z,95
2016-11-10T07:58:55.759Z,100
2016-11-10T08:00:06.044Z,100
2016-11-10T08:01:16.321Z,90
2016-11-10T08:02:26.313Z,90
2016-11-10T08:03:36.315Z,100
2016-11-10T08:04:46.300Z,100
2016-11-10T08:05:56.573Z,105
2016-11-10T08:07:06.872Z,110
2016-11-10T08:08:17.151Z,115
2016-11-10T08:09:27.428Z,115
2016-11-10T08:10:37.710Z,120
2016-11-10T08:11:47.987Z,115
2016-11-10T08:12:58.272Z,120
2016-11-10T08:14:08.549Z,125
2016-11-10T08:15:18.204Z,120
2016-11-10T08:16:28.478Z,115
2016-11-10T08:17:38.161Z,115
2016-11-10T08:18:48.121Z,110
2016-11-10T08:19:58.095Z,110
2016-11-10T08:21:08.379Z,115
2016-11-10T08:22:18.661Z,115
2016-11-10T08:23:28.950Z,115
2016-11-10T08:24:39.231Z,105
2016-11-10T08:25:49.495Z,110
2016-11-10T08:26:59.183Z,120
2016-11-10T08:28:09.145Z,125
2016-11-10T08:29:19.416Z,135
2016-11-10T08:30:29.112Z,125
2016-11-10T08:31:39.380Z,120
2016-11-10T08:32:49.658Z,125
2016-11-10T08:33:59.939Z,125
2016-11-10T08:35:10.225Z,130
2016-11-10T08:36:20.501Z,125
2016-11-10T08:37:30.163Z,125
2016-11-10T08:38:40.131Z,125
2016-11-10T08:39:50.420Z,140
2016-11-10T08:41:00.076Z,140
2016-11-10T08:42:10.359Z,150
2016-11-10T08:43:20.636Z,170
2016-11-10T08:44:30.607Z,185
2016-11-10T08:45:40.885Z,185
2016-11-10T08:46:50.851Z,215
2016-11-10T08:48:01.127Z,185
2016-11-10T08:49:11.413Z,190
2016-11-10T08:50:21.698Z,155
2016-11-10T08:51:31.989Z,140
2016-11-10T08:52:42.280Z,135
2016-11-10T08:53:52.547Z,135
2016-11-10T08:55:02.842Z,130
2016-11-10T08:56:12.809Z,130
2016-11-10T08:57:23.091Z,130
2016-11-10T08:58:33.068Z,125
2016-11-10T08:59:43.358Z,125
2016-11-10T09:00:53.680Z,120
2016-11-10T09:02:03.642Z,115
2016-11-10T09:03:13.934Z,195
2016-11-10T09:04:23.601Z,190
2016-11-10T09:05:33.572Z,175
2016-11-10T09:06:43.540Z,180
2016-11-10T09:07:53.822Z,185
2016-11-10T09:09:04.121Z,185
2016-11-10T09:10:14.409Z,190
2016-11-10T09:11:24.709Z,190
2016-11-10T09:12:34.979Z,195
2016-11-10T09:13:45.261Z,190
2016-11-10T09:14:55.537Z,190
2016-11-10T09:16:05.807Z,195
2016-11-10T09:17:16.083Z,190
2016-11-10T09:18:26.051Z,195
2016-11-10T09:19:36.367Z,195
2016-11-10T09:20:46.640Z,195
2016-11-10T09:21:56.923Z,190
2016-11-10T09:23:07.197Z,195
2016-11-10T09:24:17.552Z,195
2016-11-10T09:25:27.835Z,195
2016-11-10T09:26:38.122Z,190
2016-11-10T09:27:48.094Z,200
2016-11-10T09:28:58.060Z,205
2016-11-10T09:30:08.362Z,210
2016-11-10T09:31:18.639Z,210
2016-11-10T09:32:28.930Z,210
2016-11-10T09:33:38.912Z,205
2016-11-10T09:34:49.189Z,220
2016-11-10T09:35:59.473Z,225
2016-11-10T09:37:09.443Z,235
2016-11-10T09:38:19.729Z,205
2016-11-10T09:39:29.695Z,215
2016-11-10T09:40:39.677Z,160
2016-11-10T09:41:49.654Z,155
2016-11-10T09:42:59.615Z,165
2016-11-10T09:44:09.280Z,160
2016-11-10T09:45:19.558Z,160
2016-11-10T09:46:29.530Z,160
2016-11-10T09:47:39.813Z,160
2016-11-10T09:48:50.111Z,155
2016-11-10T09:50:00.400Z,150
2016-11-10T09:51:10.683Z,140
2016-11-10T09:52:20.351Z,135
2016-11-10T09:53:30.045Z,125
2016-11-10T09:54:40.317Z,125
2016-11-10T09:55:50.293Z,125
2016-11-10T09:57:00.269Z,125
2016-11-10T09:58:10.545Z,120
2016-11-10T09:59:20.830Z,120
2016-11-10T10:00:31.106Z,120
2016-11-10T10:01:41.090Z,120
2016-11-10T10:02:51.058Z,115
2016-11-10T10:04:01.035Z,115
2016-11-10T10:05:11.312Z,120
2016-11-10T10:06:21.292Z,125
2016-11-10T10:07:31.600Z,125
2016-11-10T10:08:41.888Z,120
2016-11-10T10:09:51.563Z,120
2016-11-10T10:11:01.561Z,125
2016-11-10T10:12:11.543Z,130
2016-11-10T10:13:21.893Z,125
2016-11-10T10:14:31.556Z,125
2016-11-10T10:15:41.518Z,120
2016-11-10T10:16:51.192Z,115
2016-11-10T10:18:01.482Z,110
2016-11-10T10:19:11.466Z,110
2016-11-10T10:20:21.135Z,120
2016-11-10T10:21:31.100Z,135
2016-11-10T10:22:41.091Z,150
2016-11-10T10:23:51.388Z,160
2016-11-10T10:25:01.351Z,170
2016-11-10T10:26:11.014Z,175
2016-11-10T10:27:20.976Z,165
2016-11-10T10:28:31.253Z,150
2016-11-10T10:29:41.538Z,145
2016-11-10T10:30:51.516Z,150
2016-11-10T10:32:01.804Z,165
2016-11-10T10:33:11.470Z,145
2016-11-10T10:34:21.744Z,150
2016-11-10T10:35:32.032Z,190
2016-11-10T10:36:42.322Z,175
2016-11-10T10:37:52.707Z,220
2016-11-10T10:39:02.376Z,175
2016-11-10T10:40:12.651Z,295
2016-11-10T10:41:22.618Z,260
2016-11-10T10:42:32.590Z,160
2016-11-10T10:43:42.885Z,160
2016-11-10T10:44:53.168Z,145
2016-11-10T10:46:03.135Z,140
2016-11-10T10:47:13.426Z,135
2016-11-10T10:48:23.715Z,145
2016-11-10T10:49:34.004Z,155
2016-11-10T10:50:44.296Z,170
2016-11-10T10:51:54.596Z,170
2016-11-10T10:53:04.936Z,210
2016-11-10T10:54:15.226Z,290
2016-11-10T10:55:25.193Z,270
2016-11-10T10:56:35.190Z,270
2016-11-10T10:57:45.482Z,185
2016-11-10T10:58:55.760Z,215
2016-11-10T11:00:05.431Z,160
2016-11-10T11:01:15.721Z,140
2016-11-10T11:02:25.998Z,155
2016-11-10T11:03:36.284Z,260
2016-11-10T11:04:46.603Z,140
2016-11-10T11:05:56.601Z,180
2016-11-10T11:07:06.591Z,185
2016-11-10T11:08:16.873Z,245
2016-11-10T11:09:27.135Z,245
2016-11-10T11:10:37.467Z,140
2016-11-10T11:11:47.487Z,265
2016-11-10T11:12:57.168Z,180
2016-11-10T11:14:07.463Z,275
2016-11-10T11:15:17.753Z,270
2016-11-10T11:16:27.438Z,130
2016-11-10T11:17:37.721Z,115
2016-11-10T11:18:47.702Z,125
2016-11-10T11:19:57.986Z,140
2016-11-10T11:21:08.272Z,130
2016-11-10T11:22:18.547Z,150
2016-11-10T11:23:28.835Z,155
2016-11-10T11:24:39.162Z,160
2016-11-10T11:25:49.449Z,300
2016-11-10T11:26:59.819Z,160
2016-11-10T11:28:10.127Z,160
2016-11-10T11:29:20.402Z,150
2016-11-10T11:30:30.069Z,145
2016-11-10T11:31:40.366Z,145
2016-11-10T11:32:50.028Z,150
2016-11-10T11:34:00.338Z,175
2016-11-10T11:35:10.620Z,170
2016-11-10T11:36:20.592Z,175
2016-11-10T11:37:30.881Z,200
2016-11-10T11:38:40.865Z,170
2016-11-10T11:39:51.159Z,135
2016-11-10T11:41:01.134Z,150
2016-11-10T11:42:11.418Z,140
2016-11-10T11:43:21.702Z,145
2016-11-10T11:44:31.360Z,200
2016-11-10T11:45:41.691Z,185
2016-11-10T11:46:51.979Z,110
2016-11-10T11:48:01.975Z,120
2016-11-10T11:49:11.959Z,210
2016-11-10T11:50:21.946Z,100
2016-11-10T11:51:32.227Z,105
2016-11-10T11:52:42.212Z,100
2016-11-10T11:53:52.503Z,110
2016-11-10T11:55:02.794Z,130
2016-11-10T11:56:13.118Z,265
2016-11-10T11:57:23.418Z,260
2016-11-10T11:58:33.696Z,225
2016-11-10T11:59:43.349Z,260
2016-11-10T12:00:53.638Z,265
2016-11-10T12:02:03.931Z,265
2016-11-10T12:03:13.902Z,265
2016-11-10T12:04:24.179Z,265
2016-11-10T12:05:34.495Z,270
2016-11-10T12:06:44.502Z,270
2016-11-10T12:07:54.794Z,270
2016-11-10T12:09:04.775Z,225
2016-11-10T12:10:15.058Z,205
2016-11-10T12:11:25.325Z,160
2016-11-10T12:12:35.622Z,180
2016-11-10T12:13:45.906Z,165
2016-11-10T12:14:55.950Z,130
2016-11-10T12:16:06.242Z,205
2016-11-10T12:17:16.218Z,185
2016-11-10T12:18:26.499Z,210
2016-11-10T12:19:36.468Z,210
2016-11-10T12:20:46.754Z,190
2016-11-10T12:21:57.044Z,170
2016-11-10T12:23:07.061Z,270
2016-11-10T12:24:17.338Z,285
2016-11-10T12:25:27.316Z,285
2016-11-10T12:26:37.596Z,190
2016-11-10T12:27:47.569Z,160
2016-11-10T12:28:57.864Z,180
2016-11-10T12:30:08.147Z,280
2016-11-10T12:31:18.123Z,280
2016-11-10T12:32:28.104Z,280
2016-11-10T12:33:38.070Z,285
2016-11-10T12:34:48.347Z,235
2016-11-10T12:35:58.642Z,280
2016-11-10T12:37:08.940Z,280
2016-11-10T12:38:18.906Z,270
2016-11-10T12:39:28.880Z,260
2016-11-10T12:40:39.192Z,250
2016-11-10T12:41:49.181Z,245
2016-11-10T12:42:59.145Z,235
2016-11-10T12:44:09.440Z,230
2016-11-10T12:45:19.719Z,225
2016-11-10T12:46:29.995Z,215
2016-11-10T12:47:40.285Z,215
2016-11-10T12:48:50.558Z,215
2016-11-10T12:50:00.545Z,210
2016-11-10T12:51:10.537Z,205
2016-11-10T12:52:20.235Z,205
2016-11-10T12:53:30.517Z,200
2016-11-10T12:54:40.803Z,105
2016-11-10T12:55:51.008Z,200
2016-11-10T12:57:01.296Z,95
2016-11-10T12:58:11.592Z,190
2016-11-10T12:59:21.583Z,185
2016-11-10T13:00:31.869Z,205
2016-11-10T13:01:41.538Z,125
2016-11-10T13:02:51.830Z,225
2016-11-10T13:04:02.153Z,120
2016-11-10T13:05:12.462Z,200
2016-11-10T13:06:22.779Z,195
2016-11-10T13:07:33.067Z,195
2016-11-10T13:08:43.377Z,190
2016-11-10T13:09:53.375Z,190
2016-11-10T13:11:03.716Z,185
2016-11-10T13:12:13.993Z,185
2016-11-10T13:13:23.965Z,180
2016-11-10T13:14:33.660Z,180
2016-11-10T13:15:43.637Z,175
2016-11-10T13:16:53.626Z,175
2016-11-10T13:18:03.913Z,160
2016-11-10T13:19:14.209Z,175
2016-11-10T13:20:24.534Z,80
2016-11-10T13:21:34.846Z,80
2016-11-10T13:22:45.148Z,75
2016-11-10T13:23:55.130Z,80
2016-11-10T13:25:05.096Z,80
2016-11-10T13:26:14.450Z,95
2016-11-10T13:27:24.745Z,160
2016-11-10T13:28:34.727Z,130
2016-11-10T13:29:44.084Z,75
2016-11-10T13:30:54.361Z,75
2016-11-10T13:32:04.646Z,75
2016-11-10T13:33:14.930Z,75
2016-11-10T13:34:25.210Z,75
2016-11-10T13:35:35.507Z,75
2016-11-10T13:36:45.799Z,70
2016-11-10T13:37:56.095Z,70
2016-11-10T13:39:06.379Z,60
2016-11-10T13:40:16.664Z,40
2016-11-10T13:41:26.650Z,30
2016-11-10T13:42:36.624Z,20
2016-11-10T13:43:46.948Z,10
2016-11-10T13:44:56.618Z,10
2016-11-10T13:46:06.294Z,5
2016-11-10T13:47:16.601Z,10
2016-11-10T13:48:26.572Z,10
2016-11-10T13:49:36.567Z,15
2016-11-10T13:50:46.869Z,20
2016-11-10T13:51:57.156Z,25
2016-11-10T13:53:07.443Z,25
2016-11-10T13:54:17.425Z,30
2016-11-10T13:55:27.437Z,35
2016-11-10T13:56:37.722Z,35
2016-11-10T13:57:47.691Z,35
2016-11-10T13:58:57.979Z,40
2016-11-10T14:00:08.278Z,40
2016-11-10T14:01:18.575Z,40
2016-11-10T14:02:28.565Z,40
2016-11-10T14:03:38.838Z,40
2016-11-10T14:04:49.160Z,40
2016-11-10T14:05:59.436Z,35
2016-11-10T14:07:09.428Z,35
2016-11-10T14:08:19.724Z,30
2016-11-10T14:09:30.052Z,30
2016-11-10T14:10:40.333Z,30
2016-11-10T14:11:50.631Z,30
2016-11-10T14:13:00.921Z,30
2016-11-10T14:14:11.247Z,30
2016-11-10T14:15:21.255Z,25
2016-11-10T14:16:30.922Z,25
2016-11-10T14:17:41.206Z,25
2016-11-10T14:18:51.515Z,25
2016-11-10T14:20:01.527Z,25
2016-11-10T14:21:11.523Z,25
2016-11-10T14:22:21.805Z,20
2016-11-10T14:23:32.138Z,20
2016-11-10T14:24:42.241Z,20
2016-11-10T14:25:52.563Z,15
2016-11-10T14:27:02.926Z,15
2016-11-10T14:28:12.986Z,15
2016-11-10T14:29:23.339Z,15
2016-11-10T14:30:33.647Z,15
2016-11-10T14:31:43.980Z,15
2016-11-10T14:32:54.293Z,10
2016-11-10T14:34:04.634Z,10
2016-11-10T14:35:15.004Z,10
2016-11-10T14:36:25.073Z,10
2016-11-10T14:37:35.622Z,10
2016-11-10T14:38:46.204Z,10
2016-11-10T14:39:56.506Z,10
2016-11-10T14:41:06.527Z,15
2016-11-10T14:42:16.527Z,15
2016-11-10T14:43:26.890Z,15
2016-11-10T14:44:37.190Z,15
2016-11-10T14:45:47.656Z,10
2016-11-10T14:46:57.996Z,10
2016-11-10T14:48:08.293Z,10
2016-11-10T14:49:18.597Z,10
2016-11-10T14:50:28.654Z,10
2016-11-10T14:51:38.952Z,10
2016-11-10T14:52:48.971Z,10
2016-11-10T14:53:59.300Z,10
2016-11-10T14:55:09.669Z,5
2016-11-10T14:56:20.087Z,5
2016-11-10T14:57:30.399Z,5
2016-11-10T14:58:40.704Z,5
2016-11-10T14:59:50.999Z,5
2016-11-10T15:01:01.352Z,5
2016-11-10T15:02:11.700Z,5
2016-11-10T15:03:21.701Z,5
2016-11-10T15:04:32.057Z,5
2016-11-10T15:05:42.366Z,5
2016-11-10T15:06:52.698Z,5
2016-11-10T15:08:03.031Z,0
2016-11-10T15:09:13.337Z,0
2016-11-10T15:10:23.653Z,0
2016-11-10T15:11:33.965Z,0
2016-11-10T15:12:43.999Z,0
2016-11-10T15:13:54.298Z,0
2016-11-10T15:15:04.626Z,0
2016-11-10T15:16:15.011Z,0
2016-11-10T15:17:25.340Z,0
2016-11-10T15:18:35.313Z,0
2016-11-10T15:19:44.760Z,0
2016-11-10T15:20:55.100Z,0
2016-11-10T15:22:05.102Z,0
2016-11-10T15:23:15.094Z,0
2016-11-10T15:24:25.406Z,0
2016-11-10T15:25:35.707Z,0
2016-11-10T15:26:46.027Z,0
2016-11-10T15:27:56.346Z,0
2016-11-10T15:29:06.651Z,0
2016-11-10T15:30:17.065Z,0
2016-11-10T15:31:27.072Z,0
2016-11-10T15:32:37.361Z,0
2016-11-10T15:33:47.745Z,0
2016-11-10T15:34:58.048Z,0
2016-11-10T15:36:08.353Z,0
2016-11-10T15:37:18.662Z,0
2016-11-10T15:38:28.685Z,0
2016-11-10T15:39:38.990Z,0
2016-11-10T15:40:49.302Z,0
2016-11-10T15:41:59.595Z,0
2016-11-10T15:43:09.610Z,0
2016-11-10T15:44:19.617Z,0
2016-11-10T15:45:29.912Z,0
2016-11-10T15:46:40.224Z,0
2016-11-10T15:47:50.515Z,0
2016-11-10T15:49:00.515Z,0
2016-11-10T15:50:10.821Z,0
2016-11-10T15:51:20.805Z,0
2016-11-10T15:52:30.508Z,0
2016-11-10T15:53:40.523Z,0
2016-11-10T15:54:50.830Z,0
2016-11-10T15:56:01.123Z,0
2016-11-10T15:57:11.117Z,0
2016-11-10T15:58:21.106Z,0
2016-11-10T15:59:31.420Z,0
2016-11-10T16:00:41.420Z,0
2016-11-10T16:01:51.406Z,0
2016-11-10T16:03:01.736Z,0
2016-11-10T16:04:12.042Z,0
2016-11-10T16:05:22.354Z,0
2016-11-10T16:06:32.016Z,0
2016-11-10T16:07:42.302Z,0
2016-11-10T16:08:52.599Z,0
2016-11-10T16:10:02.881Z,0
2016-11-10T16:11:13.183Z,0
2016-11-10T16:12:23.479Z,0
2016-11-10T16:13:33.769Z,0
2016-11-10T16:14:44.074Z,0
2016-11-10T16:15:54.061Z,0
2016-11-10T16:17:04.368Z,0
2016-11-10T16:18:14.482Z,0
2016-11-10T16:19:24.474Z,0
2016-11-10T16:20:34.790Z,0
2016-11-10T16:21:45.068Z,0
2016-11-10T16:22:54.420Z,0
2016-11-10T16:24:04.738Z,0
2016-11-10T16:25:15.039Z,0
2016-11-10T16:26:25.321Z,0
2016-11-10T16:27:35.640Z,0
2016-11-10T16:28:45.944Z,0
2016-11-10T16:29:55.985Z,0
2016-11-10T16:31:06.286Z,0
2016-11-10T16:32:15.976Z,0
2016-11-10T16:33:26.267Z,0
2016-11-10T16:34:36.561Z,0
2016-11-10T16:35:46.554Z,0
2016-11-10T16:36:56.848Z,0
2016-11-10T16:38:07.143Z,0
2016-11-10T16:39:17.435Z,0
2016-11-10T16:40:27.412Z,0
2016-11-10T16:41:37.398Z,0
2016-11-10T16:42:47.694Z,0
2016-11-10T16:43:57.681Z,0
2016-11-10T16:45:07.958Z,0
2016-11-10T16:46:18.233Z,0
2016-11-10T16:47:28.565Z,0
2016-11-10T16:48:38.851Z,0
2016-11-10T16:49:48.529Z,0
2016-11-10T16:50:58.816Z,0
2016-11-10T16:52:08.789Z,0
2016-11-10T16:53:18.778Z,0
2016-11-10T16:54:28.787Z,0
2016-11-10T16:55:38.993Z,0
2016-11-10T16:56:49.285Z,0
2016-11-10T16:57:59.589Z,0
2016-11-10T16:59:09.881Z,0
2016-11-10T17:00:20.190Z,0
2016-11-10T17:01:30.492Z,0
2016-11-10T17:02:40.798Z,0
2016-11-10T17:03:50.808Z,0
2016-11-10T17:05:00.490Z,0
2016-11-10T17:06:10.788Z,0
2016-11-10T17:07:20.460Z,0
2016-11-10T17:08:30.765Z,0
2016-11-10T17:09:41.068Z,0
2016-11-10T17:10:50.758Z,0
2016-11-10T17:12:00.720Z,0
2016-11-10T17:13:11.001Z,0
2016-11-10T17:14:20.989Z,0
2016-11-10T17:15:31.292Z,0
2016-11-10T17:16:41.628Z,0
2016-11-10T17:17:51.901Z,0